This is the latest recevied weather packets stored in our database for station/object K7TSD. If no packets are shown the sender has not sent any weather packets the latest 10 day(s).
| Time | Temp. | Humidity | Pressure | Rain* | Wind** | Luminosity | Snow |
|---|---|---|---|---|---|---|---|
| 1777830941 | 15° C | 54% | 1012.8 hPa | 0 mm | - | 408 W/m² | - |
| 1777830638 | 14.44° C | 57% | 1012.9 hPa | 0 mm | - | 881 W/m² | - |
| 1777830336 | 16.11° C | 56% | 1012.8 hPa | 0 mm | - | 340 W/m² | - |
| 1777830032 | 16.11° C | 55% | 1012.7 hPa | 0 mm | - | 908 W/m² | - |
| 1777829727 | 15° C | 55% | 1013 hPa | 0 mm | - | 869 W/m² | - |
| 1777829423 | 14.44° C | 56% | 1012.9 hPa | 0 mm | - | 887 W/m² | - |
| 1777829121 | 15° C | 59% | 1013 hPa | 0 mm | - | 566 W/m² | - |
| 1777828818 | 14.44° C | 59% | 1012.7 hPa | 0 mm | - | 838 W/m² | - |
| 1777828514 | 13.89° C | 61% | 1013 hPa | 0 mm | - | 865 W/m² | - |
| 1777828212 | 13.89° C | 62% | 1013 hPa | 0 mm | - | 219 W/m² | - |
| 1777827908 | 14.44° C | 62% | 1012.8 hPa | 0 mm | - | 839 W/m² | - |
| 1777827605 | 12.78° C | 65% | 1013.1 hPa | 0 mm | - | 775 W/m² | - |
| 1777827303 | 11.67° C | 69% | 1013.2 hPa | 0 mm | - | 781 W/m² | - |
| 1777826999 | 11.67° C | 71% | 1012.9 hPa | 0 mm | - | 759 W/m² | - |
| 1777826696 | 10.56° C | 73% | 1013.2 hPa | 0 mm | - | 427 W/m² | - |
| 1777826393 | 10.56° C | 73% | 1013.4 hPa | 0 mm | - | 105 W/m² | - |
| 1777826090 | 11.67° C | 69% | 1013.1 hPa | 0 mm | - | 98 W/m² | - |
| 1777825787 | 11.67° C | 68% | 1013.4 hPa | 0 mm | - | 74 W/m² | - |
| 1777825484 | 11.67° C | 70% | 1013.6 hPa | 0 mm | - | 117 W/m² | - |
| 1777825181 | 12.22° C | 65% | 1013.5 hPa | 0 mm | - | 201 W/m² | - |
| 1777824878 | 11.67° C | 64% | 1013.8 hPa | 0 mm | - | 256 W/m² | - |
| 1777824574 | 12.78° C | 55% | 1013.6 hPa | 0 mm | - | 117 W/m² | - |
| 1777824271 | 12.78° C | 55% | 1013.5 hPa | 0 mm | - | 39 W/m² | - |
| 1777823967 | 13.33° C | 56% | 1013.2 hPa | 0 mm | - | 18 W/m² | - |
| 1777823664 | 13.89° C | 53% | 1013 hPa | 0 mm | - | 92 W/m² | - |
* Rain latest hour (hover to see other rain measurements)
** Current wind speed in m/s (hover to see current wind gust speed)